sensor_id;sensor_type;location;lat;lon;timestamp;P1;durP1;ratioP1;P2;durP2;ratioP2
438;SDS011;206;48.782;9.252;2024-03-02T00:02:12;14.33;;;11.67;;
438;SDS011;206;48.782;9.252;2024-03-02T00:04:37;12.57;;;11.37;;
438;SDS011;206;48.782;9.252;2024-03-02T00:07:03;13.07;;;10.70;;
438;SDS011;206;48.782;9.252;2024-03-02T00:09:29;16.30;;;12.67;;
438;SDS011;206;48.782;9.252;2024-03-02T00:11:55;14.93;;;10.83;;
438;SDS011;206;48.782;9.252;2024-03-02T00:14:21;14.70;;;12.93;;
438;SDS011;206;48.782;9.252;2024-03-02T00:16:49;15.00;;;13.00;;
438;SDS011;206;48.782;9.252;2024-03-02T00:19:16;15.07;;;12.60;;
438;SDS011;206;48.782;9.252;2024-03-02T00:21:42;18.97;;;15.47;;
438;SDS011;206;48.782;9.252;2024-03-02T00:24:18;15.27;;;12.17;;
438;SDS011;206;48.782;9.252;2024-03-02T00:26:45;14.97;;;12.80;;
438;SDS011;206;48.782;9.252;2024-03-02T00:29:12;18.63;;;15.10;;
438;SDS011;206;48.782;9.252;2024-03-02T00:31:41;15.63;;;12.67;;
438;SDS011;206;48.782;9.252;2024-03-02T00:34:07;14.23;;;12.70;;
438;SDS011;206;48.782;9.252;2024-03-02T00:36:32;16.23;;;12.23;;
438;SDS011;206;48.782;9.252;2024-03-02T00:38:58;15.83;;;13.50;;
438;SDS011;206;48.782;9.252;2024-03-02T00:41:25;15.20;;;13.50;;
438;SDS011;206;48.782;9.252;2024-03-02T00:44:00;16.80;;;12.40;;
438;SDS011;206;48.782;9.252;2024-03-02T00:46:29;17.80;;;14.10;;
438;SDS011;206;48.782;9.252;2024-03-02T00:48:59;18.40;;;12.70;;
438;SDS011;206;48.782;9.252;2024-03-02T00:51:29;16.23;;;12.77;;
438;SDS011;206;48.782;9.252;2024-03-02T00:53:57;20.57;;;15.37;;
438;SDS011;206;48.782;9.252;2024-03-02T00:56:29;19.60;;;13.60;;
438;SDS011;206;48.782;9.252;2024-03-02T00:58:55;17.87;;;15.37;;
438;SDS011;206;48.782;9.252;2024-03-02T01:01:21;16.80;;;14.60;;
438;SDS011;206;48.782;9.252;2024-03-02T01:03:47;17.83;;;13.73;;
438;SDS011;206;48.782;9.252;2024-03-02T01:06:13;18.27;;;14.00;;
438;SDS011;206;48.782;9.252;2024-03-02T01:08:39;16.33;;;13.83;;
438;SDS011;206;48.782;9.252;2024-03-02T01:11:05;16.53;;;13.13;;
438;SDS011;206;48.782;9.252;2024-03-02T01:13:31;18.97;;;12.97;;
438;SDS011;206;48.782;9.252;2024-03-02T01:15:57;16.20;;;12.37;;
438;SDS011;206;48.782;9.252;2024-03-02T01:18:23;16.63;;;12.70;;
438;SDS011;206;48.782;9.252;2024-03-02T01:20:49;17.80;;;12.30;;
438;SDS011;206;48.782;9.252;2024-03-02T01:23:20;20.60;;;13.70;;
438;SDS011;206;48.782;9.252;2024-03-02T01:25:48;18.67;;;15.50;;
438;SDS011;206;48.782;9.252;2024-03-02T01:28:14;14.27;;;12.27;;
438;SDS011;206;48.782;9.252;2024-03-02T01:30:40;15.50;;;12.77;;
438;SDS011;206;48.782;9.252;2024-03-02T01:33:06;14.97;;;12.17;;
438;SDS011;206;48.782;9.252;2024-03-02T01:35:32;16.57;;;12.77;;
438;SDS011;206;48.782;9.252;2024-03-02T01:37:57;22.03;;;13.93;;
438;SDS011;206;48.782;9.252;2024-03-02T01:40:23;21.00;;;13.50;;
438;SDS011;206;48.782;9.252;2024-03-02T01:42:52;19.33;;;12.90;;
438;SDS011;206;48.782;9.252;2024-03-02T01:45:23;21.10;;;13.33;;
438;SDS011;206;48.782;9.252;2024-03-02T01:47:49;21.43;;;13.43;;
438;SDS011;206;48.782;9.252;2024-03-02T01:50:15;17.53;;;13.90;;
438;SDS011;206;48.782;9.252;2024-03-02T01:52:49;14.70;;;13.07;;
438;SDS011;206;48.782;9.252;2024-03-02T01:55:14;17.27;;;13.60;;
438;SDS011;206;48.782;9.252;2024-03-02T01:57:40;19.07;;;15.30;;
438;SDS011;206;48.782;9.252;2024-03-02T02:00:06;15.73;;;13.50;;
438;SDS011;206;48.782;9.252;2024-03-02T02:02:32;13.83;;;12.63;;
438;SDS011;206;48.782;9.252;2024-03-02T02:04:58;19.70;;;15.30;;
438;SDS011;206;48.782;9.252;2024-03-02T02:07:23;17.70;;;15.20;;
438;SDS011;206;48.782;9.252;2024-03-02T02:09:49;21.97;;;15.57;;
438;SDS011;206;48.782;9.252;2024-03-02T02:12:14;17.63;;;14.00;;
438;SDS011;206;48.782;9.252;2024-03-02T02:14:46;19.17;;;14.03;;
438;SDS011;206;48.782;9.252;2024-03-02T02:17:13;14.30;;;11.60;;
438;SDS011;206;48.782;9.252;2024-03-02T02:19:40;20.13;;;14.90;;
438;SDS011;206;48.782;9.252;2024-03-02T02:22:06;18.60;;;13.43;;
438;SDS011;206;48.782;9.252;2024-03-02T02:24:31;17.17;;;13.63;;
438;SDS011;206;48.782;9.252;2024-03-02T02:26:57;18.33;;;14.60;;
438;SDS011;206;48.782;9.252;2024-03-02T02:29:22;16.20;;;12.70;;
438;SDS011;206;48.782;9.252;2024-03-02T02:31:48;16.63;;;13.50;;
438;SDS011;206;48.782;9.252;2024-03-02T02:34:14;19.27;;;14.23;;
438;SDS011;206;48.782;9.252;2024-03-02T02:36:40;17.80;;;12.50;;
438;SDS011;206;48.782;9.252;2024-03-02T02:39:09;19.70;;;15.03;;
438;SDS011;206;48.782;9.252;2024-03-02T02:41:38;25.33;;;15.00;;
438;SDS011;206;48.782;9.252;2024-03-02T02:44:04;14.87;;;12.33;;
438;SDS011;206;48.782;9.252;2024-03-02T02:46:29;15.77;;;13.80;;
438;SDS011;206;48.782;9.252;2024-03-02T02:48:55;14.23;;;12.10;;
438;SDS011;206;48.782;9.252;2024-03-02T02:51:21;17.70;;;13.63;;
438;SDS011;206;48.782;9.252;2024-03-02T02:53:46;19.50;;;15.17;;
438;SDS011;206;48.782;9.252;2024-03-02T02:56:12;14.77;;;13.20;;
438;SDS011;206;48.782;9.252;2024-03-02T02:58:37;17.30;;;12.80;;
438;SDS011;206;48.782;9.252;2024-03-02T03:01:04;14.70;;;12.17;;
438;SDS011;206;48.782;9.252;2024-03-02T03:03:30;18.43;;;12.73;;
438;SDS011;206;48.782;9.252;2024-03-02T03:05:56;16.33;;;12.63;;
438;SDS011;206;48.782;9.252;2024-03-02T03:08:21;17.97;;;13.37;;
438;SDS011;206;48.782;9.252;2024-03-02T03:10:48;18.07;;;13.10;;
438;SDS011;206;48.782;9.252;2024-03-02T03:13:14;14.97;;;12.70;;
438;SDS011;206;48.782;9.252;2024-03-02T03:15:40;17.80;;;13.87;;
438;SDS011;206;48.782;9.252;2024-03-02T03:18:05;22.00;;;14.50;;
438;SDS011;206;48.782;9.252;2024-03-02T03:20:32;21.00;;;14.83;;
438;SDS011;206;48.782;9.252;2024-03-02T03:22:59;16.50;;;13.90;;
438;SDS011;206;48.782;9.252;2024-03-02T03:25:25;17.97;;;13.40;;
438;SDS011;206;48.782;9.252;2024-03-02T03:27:51;17.80;;;14.67;;
438;SDS011;206;48.782;9.252;2024-03-02T03:30:19;17.80;;;14.27;;
438;SDS011;206;48.782;9.252;2024-03-02T03:32:45;19.73;;;15.43;;
438;SDS011;206;48.782;9.252;2024-03-02T03:35:10;17.93;;;14.50;;
438;SDS011;206;48.782;9.252;2024-03-02T03:37:38;21.57;;;14.90;;
438;SDS011;206;48.782;9.252;2024-03-02T03:40:03;18.53;;;15.10;;
438;SDS011;206;48.782;9.252;2024-03-02T03:42:35;20.80;;;16.27;;
438;SDS011;206;48.782;9.252;2024-03-02T03:45:03;19.13;;;14.17;;
438;SDS011;206;48.782;9.252;2024-03-02T03:47:30;21.17;;;16.07;;
438;SDS011;206;48.782;9.252;2024-03-02T03:49:56;22.70;;;14.43;;
438;SDS011;206;48.782;9.252;2024-03-02T03:52:22;24.77;;;15.57;;
438;SDS011;206;48.782;9.252;2024-03-02T03:54:48;18.37;;;13.80;;
438;SDS011;206;48.782;9.252;2024-03-02T03:57:14;19.60;;;14.50;;
438;SDS011;206;48.782;9.252;2024-03-02T03:59:39;18.53;;;14.87;;
438;SDS011;206;48.782;9.252;2024-03-02T04:02:05;19.47;;;14.40;;
438;SDS011;206;48.782;9.252;2024-03-02T04:04:30;18.80;;;14.80;;
438;SDS011;206;48.782;9.252;2024-03-02T04:06:56;19.33;;;14.50;;
438;SDS011;206;48.782;9.252;2024-03-02T04:09:21;19.50;;;14.73;;
438;SDS011;206;48.782;9.252;2024-03-02T04:11:47;21.23;;;13.90;;
438;SDS011;206;48.782;9.252;2024-03-02T04:14:12;22.80;;;15.87;;
438;SDS011;206;48.782;9.252;2024-03-02T04:16:38;18.73;;;15.50;;
438;SDS011;206;48.782;9.252;2024-03-02T04:19:04;20.13;;;16.13;;
438;SDS011;206;48.782;9.252;2024-03-02T04:21:30;21.83;;;16.33;;
438;SDS011;206;48.782;9.252;2024-03-02T04:23:55;19.83;;;15.50;;
438;SDS011;206;48.782;9.252;2024-03-02T04:26:23;19.57;;;15.00;;
438;SDS011;206;48.782;9.252;2024-03-02T04:28:50;18.20;;;14.40;;
438;SDS011;206;48.782;9.252;2024-03-02T04:31:16;20.83;;;15.80;;
438;SDS011;206;48.782;9.252;2024-03-02T04:33:42;25.00;;;15.90;;
438;SDS011;206;48.782;9.252;2024-03-02T04:36:07;20.83;;;15.87;;
438;SDS011;206;48.782;9.252;2024-03-02T04:38:37;20.87;;;15.67;;
438;SDS011;206;48.782;9.252;2024-03-02T04:41:03;20.37;;;15.73;;
438;SDS011;206;48.782;9.252;2024-03-02T04:43:31;20.50;;;15.50;;
438;SDS011;206;48.782;9.252;2024-03-02T04:45:57;20.50;;;15.77;;
438;SDS011;206;48.782;9.252;2024-03-02T04:48:23;21.00;;;14.30;;
438;SDS011;206;48.782;9.252;2024-03-02T04:50:49;20.80;;;15.73;;
438;SDS011;206;48.782;9.252;2024-03-02T04:53:15;23.03;;;14.63;;
438;SDS011;206;48.782;9.252;2024-03-02T04:55:40;22.07;;;16.87;;
438;SDS011;206;48.782;9.252;2024-03-02T04:58:06;18.60;;;14.53;;
438;SDS011;206;48.782;9.252;2024-03-02T05:00:32;19.63;;;15.23;;
438;SDS011;206;48.782;9.252;2024-03-02T05:02:57;21.47;;;16.10;;
438;SDS011;206;48.782;9.252;2024-03-02T05:05:23;19.90;;;15.27;;
438;SDS011;206;48.782;9.252;2024-03-02T05:07:49;23.70;;;15.90;;
438;SDS011;206;48.782;9.252;2024-03-02T05:10:14;19.90;;;15.40;;
438;SDS011;206;48.782;9.252;2024-03-02T05:12:40;21.40;;;15.50;;
438;SDS011;206;48.782;9.252;2024-03-02T05:15:09;17.60;;;14.90;;
438;SDS011;206;48.782;9.252;2024-03-02T05:17:36;20.23;;;15.00;;
438;SDS011;206;48.782;9.252;2024-03-02T05:20:03;17.87;;;14.57;;
438;SDS011;206;48.782;9.252;2024-03-02T05:22:35;20.30;;;15.10;;
438;SDS011;206;48.782;9.252;2024-03-02T05:25:01;17.90;;;14.77;;
438;SDS011;206;48.782;9.252;2024-03-02T05:27:27;20.30;;;16.67;;
438;SDS011;206;48.782;9.252;2024-03-02T05:29:53;18.43;;;15.57;;
438;SDS011;206;48.782;9.252;2024-03-02T05:32:18;18.70;;;14.70;;
438;SDS011;206;48.782;9.252;2024-03-02T05:34:44;21.80;;;15.43;;
438;SDS011;206;48.782;9.252;2024-03-02T05:37:10;18.00;;;14.87;;
438;SDS011;206;48.782;9.252;2024-03-02T05:39:35;19.43;;;15.20;;
438;SDS011;206;48.782;9.252;2024-03-02T05:42:01;22.00;;;15.40;;
438;SDS011;206;48.782;9.252;2024-03-02T05:44:26;20.63;;;15.10;;
438;SDS011;206;48.782;9.252;2024-03-02T05:46:52;21.20;;;15.50;;
438;SDS011;206;48.782;9.252;2024-03-02T05:49:17;18.43;;;14.97;;
438;SDS011;206;48.782;9.252;2024-03-02T05:51:43;19.60;;;15.87;;
438;SDS011;206;48.782;9.252;2024-03-02T05:54:09;17.47;;;14.47;;
438;SDS011;206;48.782;9.252;2024-03-02T05:56:34;21.20;;;15.57;;
438;SDS011;206;48.782;9.252;2024-03-02T05:59:00;20.87;;;15.13;;
438;SDS011;206;48.782;9.252;2024-03-02T06:01:41;17.43;;;13.97;;
438;SDS011;206;48.782;9.252;2024-03-02T06:04:09;19.50;;;15.33;;
438;SDS011;206;48.782;9.252;2024-03-02T06:06:36;21.23;;;15.67;;
438;SDS011;206;48.782;9.252;2024-03-02T06:09:02;24.70;;;14.60;;
438;SDS011;206;48.782;9.252;2024-03-02T06:11:35;23.33;;;16.43;;
438;SDS011;206;48.782;9.252;2024-03-02T06:14:02;22.27;;;16.50;;
438;SDS011;206;48.782;9.252;2024-03-02T06:16:28;22.63;;;15.47;;
438;SDS011;206;48.782;9.252;2024-03-02T06:18:54;20.10;;;15.73;;
438;SDS011;206;48.782;9.252;2024-03-02T06:21:22;17.50;;;13.63;;
438;SDS011;206;48.782;9.252;2024-03-02T06:23:51;25.07;;;14.80;;
438;SDS011;206;48.782;9.252;2024-03-02T06:26:18;21.97;;;16.17;;
438;SDS011;206;48.782;9.252;2024-03-02T06:28:44;19.40;;;16.00;;
438;SDS011;206;48.782;9.252;2024-03-02T06:31:09;21.30;;;14.70;;
438;SDS011;206;48.782;9.252;2024-03-02T06:33:35;19.33;;;15.23;;
438;SDS011;206;48.782;9.252;2024-03-02T06:36:01;20.03;;;15.07;;
438;SDS011;206;48.782;9.252;2024-03-02T06:38:27;18.90;;;15.40;;
438;SDS011;206;48.782;9.252;2024-03-02T06:40:53;30.37;;;17.67;;
438;SDS011;206;48.782;9.252;2024-03-02T06:43:20;19.90;;;15.43;;
438;SDS011;206;48.782;9.252;2024-03-02T06:45:48;21.13;;;15.07;;
438;SDS011;206;48.782;9.252;2024-03-02T06:48:14;19.57;;;14.30;;
438;SDS011;206;48.782;9.252;2024-03-02T06:50:44;21.33;;;14.47;;
438;SDS011;206;48.782;9.252;2024-03-02T06:53:13;19.60;;;15.27;;
438;SDS011;206;48.782;9.252;2024-03-02T06:55:42;20.67;;;16.37;;
438;SDS011;206;48.782;9.252;2024-03-02T06:58:09;20.63;;;15.50;;
438;SDS011;206;48.782;9.252;2024-03-02T07:00:35;19.77;;;14.73;;
438;SDS011;206;48.782;9.252;2024-03-02T07:03:01;19.13;;;15.20;;
438;SDS011;206;48.782;9.252;2024-03-02T07:05:27;16.27;;;13.10;;
438;SDS011;206;48.782;9.252;2024-03-02T07:07:53;21.00;;;14.30;;
438;SDS011;206;48.782;9.252;2024-03-02T07:10:18;19.30;;;14.73;;
438;SDS011;206;48.782;9.252;2024-03-02T07:12:44;19.50;;;12.97;;
438;SDS011;206;48.782;9.252;2024-03-02T07:15:09;18.67;;;13.70;;
438;SDS011;206;48.782;9.252;2024-03-02T07:17:53;18.60;;;12.60;;
438;SDS011;206;48.782;9.252;2024-03-02T07:20:19;16.70;;;12.63;;
438;SDS011;206;48.782;9.252;2024-03-02T07:22:45;16.67;;;13.10;;
438;SDS011;206;48.782;9.252;2024-03-02T07:25:10;15.03;;;13.53;;
438;SDS011;206;48.782;9.252;2024-03-02T07:27:36;16.63;;;12.37;;
438;SDS011;206;48.782;9.252;2024-03-02T07:30:02;17.17;;;13.60;;
438;SDS011;206;48.782;9.252;2024-03-02T07:32:28;18.40;;;12.90;;
438;SDS011;206;48.782;9.252;2024-03-02T07:34:54;15.23;;;12.53;;
438;SDS011;206;48.782;9.252;2024-03-02T07:37:20;17.47;;;13.40;;
438;SDS011;206;48.782;9.252;2024-03-02T07:39:46;12.63;;;10.30;;
438;SDS011;206;48.782;9.252;2024-03-02T07:42:12;14.47;;;11.50;;
438;SDS011;206;48.782;9.252;2024-03-02T07:44:38;27.23;;;11.57;;
438;SDS011;206;48.782;9.252;2024-03-02T07:47:03;15.23;;;10.27;;
438;SDS011;206;48.782;9.252;2024-03-02T07:49:29;12.70;;;10.27;;
438;SDS011;206;48.782;9.252;2024-03-02T07:51:55;11.33;;;10.70;;
438;SDS011;206;48.782;9.252;2024-03-02T07:54:20;13.33;;;9.40;;
438;SDS011;206;48.782;9.252;2024-03-02T07:56:46;10.10;;;8.83;;
438;SDS011;206;48.782;9.252;2024-03-02T07:59:12;8.70;;;8.20;;
438;SDS011;206;48.782;9.252;2024-03-02T08:01:38;9.60;;;8.40;;
438;SDS011;206;48.782;9.252;2024-03-02T08:04:03;15.50;;;9.70;;
438;SDS011;206;48.782;9.252;2024-03-02T08:06:29;11.50;;;10.27;;
438;SDS011;206;48.782;9.252;2024-03-02T08:08:56;9.47;;;8.97;;
438;SDS011;206;48.782;9.252;2024-03-02T08:11:23;9.13;;;7.77;;
438;SDS011;206;48.782;9.252;2024-03-02T08:13:49;9.73;;;8.43;;
438;SDS011;206;48.782;9.252;2024-03-02T08:16:15;11.50;;;8.70;;
438;SDS011;206;48.782;9.252;2024-03-02T08:18:43;10.93;;;8.87;;
438;SDS011;206;48.782;9.252;2024-03-02T08:21:09;8.33;;;7.90;;
438;SDS011;206;48.782;9.252;2024-03-02T08:23:35;15.23;;;9.77;;
438;SDS011;206;48.782;9.252;2024-03-02T08:26:00;11.20;;;8.90;;
438;SDS011;206;48.782;9.252;2024-03-02T08:28:26;14.47;;;8.93;;
438;SDS011;206;48.782;9.252;2024-03-02T08:30:52;10.37;;;9.70;;
438;SDS011;206;48.782;9.252;2024-03-02T08:33:17;15.57;;;11.23;;
438;SDS011;206;48.782;9.252;2024-03-02T08:35:43;16.03;;;12.63;;
438;SDS011;206;48.782;9.252;2024-03-02T08:38:09;15.27;;;11.80;;
438;SDS011;206;48.782;9.252;2024-03-02T08:40:34;15.50;;;9.90;;
438;SDS011;206;48.782;9.252;2024-03-02T08:43:00;13.20;;;10.60;;
438;SDS011;206;48.782;9.252;2024-03-02T08:45:26;13.23;;;11.10;;
438;SDS011;206;48.782;9.252;2024-03-02T08:47:51;13.43;;;11.27;;
438;SDS011;206;48.782;9.252;2024-03-02T08:50:17;11.30;;;10.30;;
438;SDS011;206;48.782;9.252;2024-03-02T08:52:43;12.60;;;11.67;;
438;SDS011;206;48.782;9.252;2024-03-02T08:55:08;15.10;;;12.23;;
438;SDS011;206;48.782;9.252;2024-03-02T08:57:36;10.90;;;10.30;;
438;SDS011;206;48.782;9.252;2024-03-02T09:00:02;14.07;;;9.97;;
438;SDS011;206;48.782;9.252;2024-03-02T09:02:28;11.33;;;10.30;;
438;SDS011;206;48.782;9.252;2024-03-02T09:04:53;11.80;;;10.13;;
438;SDS011;206;48.782;9.252;2024-03-02T09:07:19;11.00;;;9.33;;
438;SDS011;206;48.782;9.252;2024-03-02T09:09:45;12.50;;;10.13;;
438;SDS011;206;48.782;9.252;2024-03-02T09:12:10;10.40;;;9.90;;
438;SDS011;206;48.782;9.252;2024-03-02T09:14:36;11.13;;;9.13;;
438;SDS011;206;48.782;9.252;2024-03-02T09:17:02;17.53;;;13.57;;
438;SDS011;206;48.782;9.252;2024-03-02T09:19:28;7.10;;;6.70;;
438;SDS011;206;48.782;9.252;2024-03-02T09:21:54;11.90;;;8.90;;
438;SDS011;206;48.782;9.252;2024-03-02T09:24:20;8.00;;;7.70;;
438;SDS011;206;48.782;9.252;2024-03-02T09:26:46;8.43;;;6.63;;
438;SDS011;206;48.782;9.252;2024-03-02T09:29:12;15.50;;;12.87;;
438;SDS011;206;48.782;9.252;2024-03-02T09:31:41;17.13;;;14.00;;
438;SDS011;206;48.782;9.252;2024-03-02T09:34:07;8.17;;;6.13;;
438;SDS011;206;48.782;9.252;2024-03-02T09:36:33;9.70;;;8.02;;
438;SDS011;206;48.782;9.252;2024-03-02T09:38:59;8.70;;;5.53;;
438;SDS011;206;48.782;9.252;2024-03-02T09:41:24;6.63;;;5.10;;
438;SDS011;206;48.782;9.252;2024-03-02T09:43:50;5.10;;;4.80;;
438;SDS011;206;48.782;9.252;2024-03-02T09:46:16;8.60;;;5.23;;
438;SDS011;206;48.782;9.252;2024-03-02T09:48:43;5.20;;;4.20;;
438;SDS011;206;48.782;9.252;2024-03-02T09:51:10;4.13;;;3.93;;
438;SDS011;206;48.782;9.252;2024-03-02T09:53:36;4.40;;;3.93;;
438;SDS011;206;48.782;9.252;2024-03-02T09:56:02;5.37;;;4.53;;
438;SDS011;206;48.782;9.252;2024-03-02T09:58:29;5.57;;;4.50;;
438;SDS011;206;48.782;9.252;2024-03-02T10:00:55;4.33;;;4.00;;
438;SDS011;206;48.782;9.252;2024-03-02T10:03:22;5.60;;;4.60;;
438;SDS011;206;48.782;9.252;2024-03-02T10:05:49;8.10;;;7.53;;
438;SDS011;206;48.782;9.252;2024-03-02T10:08:15;7.00;;;5.27;;
438;SDS011;206;48.782;9.252;2024-03-02T10:10:41;4.80;;;4.50;;
438;SDS011;206;48.782;9.252;2024-03-02T10:13:08;6.50;;;5.30;;
438;SDS011;206;48.782;9.252;2024-03-02T10:15:35;4.00;;;3.70;;
438;SDS011;206;48.782;9.252;2024-03-02T10:18:02;5.40;;;4.50;;
438;SDS011;206;48.782;9.252;2024-03-02T10:20:29;4.47;;;3.67;;
438;SDS011;206;48.782;9.252;2024-03-02T10:25:40;4.43;;;3.87;;
438;SDS011;206;48.782;9.252;2024-03-02T10:28:06;6.97;;;6.37;;
438;SDS011;206;48.782;9.252;2024-03-02T10:30:34;4.47;;;4.18;;
438;SDS011;206;48.782;9.252;2024-03-02T10:33:04;4.53;;;3.90;;
438;SDS011;206;48.782;9.252;2024-03-02T10:35:31;4.43;;;3.87;;
438;SDS011;206;48.782;9.252;2024-03-02T10:38:01;6.77;;;4.53;;
438;SDS011;206;48.782;9.252;2024-03-02T10:40:29;6.90;;;6.50;;
438;SDS011;206;48.782;9.252;2024-03-02T10:42:55;5.60;;;4.60;;
438;SDS011;206;48.782;9.252;2024-03-02T10:45:21;5.17;;;4.70;;
438;SDS011;206;48.782;9.252;2024-03-02T10:47:48;6.07;;;5.07;;
438;SDS011;206;48.782;9.252;2024-03-02T10:50:15;6.90;;;4.63;;
438;SDS011;206;48.782;9.252;2024-03-02T10:52:40;4.33;;;4.00;;
438;SDS011;206;48.782;9.252;2024-03-02T10:55:07;5.33;;;4.40;;
438;SDS011;206;48.782;9.252;2024-03-02T10:57:41;5.63;;;4.30;;
438;SDS011;206;48.782;9.252;2024-03-02T11:00:11;4.30;;;3.77;;
438;SDS011;206;48.782;9.252;2024-03-02T11:02:43;4.03;;;3.83;;
438;SDS011;206;48.782;9.252;2024-03-02T11:05:16;4.30;;;3.40;;
438;SDS011;206;48.782;9.252;2024-03-02T11:08:06;3.50;;;3.27;;
438;SDS011;206;48.782;9.252;2024-03-02T11:10:57;5.60;;;3.80;;
438;SDS011;206;48.782;9.252;2024-03-02T11:13:24;6.63;;;3.03;;
438;SDS011;206;48.782;9.252;2024-03-02T11:15:57;3.70;;;3.20;;
438;SDS011;206;48.782;9.252;2024-03-02T11:18:27;3.50;;;3.33;;
438;SDS011;206;48.782;9.252;2024-03-02T11:20:54;3.33;;;3.13;;
438;SDS011;206;48.782;9.252;2024-03-02T11:23:21;4.20;;;3.23;;
438;SDS011;206;48.782;9.252;2024-03-02T11:26:16;3.63;;;3.37;;
438;SDS011;206;48.782;9.252;2024-03-02T11:28:46;3.00;;;2.80;;
438;SDS011;206;48.782;9.252;2024-03-02T11:31:12;4.00;;;2.83;;
438;SDS011;206;48.782;9.252;2024-03-02T11:33:38;2.77;;;2.60;;
438;SDS011;206;48.782;9.252;2024-03-02T11:36:05;3.73;;;3.23;;
438;SDS011;206;48.782;9.252;2024-03-02T11:38:32;3.27;;;2.67;;
438;SDS011;206;48.782;9.252;2024-03-02T11:41:02;3.80;;;2.70;;
438;SDS011;206;48.782;9.252;2024-03-02T11:43:32;1.90;;;1.60;;
438;SDS011;206;48.782;9.252;2024-03-02T11:46:01;2.77;;;2.23;;
438;SDS011;206;48.782;9.252;2024-03-02T11:48:31;2.80;;;2.15;;
438;SDS011;206;48.782;9.252;2024-03-02T11:50:58;2.67;;;1.63;;
438;SDS011;206;48.782;9.252;2024-03-02T11:53:26;1.30;;;1.10;;
438;SDS011;206;48.782;9.252;2024-03-02T11:55:55;1.33;;;0.70;;
438;SDS011;206;48.782;9.252;2024-03-02T11:58:21;2.53;;;1.20;;
438;SDS011;206;48.782;9.252;2024-03-02T12:00:52;1.37;;;1.07;;
438;SDS011;206;48.782;9.252;2024-03-02T12:03:20;1.13;;;0.80;;
438;SDS011;206;48.782;9.252;2024-03-02T12:05:49;1.63;;;1.30;;
438;SDS011;206;48.782;9.252;2024-03-02T12:08:15;0.83;;;0.73;;
438;SDS011;206;48.782;9.252;2024-03-02T12:10:42;2.87;;;1.00;;
438;SDS011;206;48.782;9.252;2024-03-02T12:13:09;1.03;;;0.80;;
438;SDS011;206;48.782;9.252;2024-03-02T12:15:38;1.30;;;1.03;;
438;SDS011;206;48.782;9.252;2024-03-02T12:18:05;3.47;;;1.33;;
438;SDS011;206;48.782;9.252;2024-03-02T12:20:32;1.83;;;1.40;;
438;SDS011;206;48.782;9.252;2024-03-02T12:22:59;1.53;;;1.43;;
438;SDS011;206;48.782;9.252;2024-03-02T12:25:27;1.07;;;0.90;;
438;SDS011;206;48.782;9.252;2024-03-02T12:27:54;1.70;;;1.03;;
438;SDS011;206;48.782;9.252;2024-03-02T12:30:21;1.17;;;1.13;;
438;SDS011;206;48.782;9.252;2024-03-02T12:32:47;1.73;;;1.03;;
438;SDS011;206;48.782;9.252;2024-03-02T12:35:14;1.20;;;0.90;;
438;SDS011;206;48.782;9.252;2024-03-02T12:37:50;1.03;;;0.90;;
438;SDS011;206;48.782;9.252;2024-03-02T12:40:17;1.20;;;1.00;;
438;SDS011;206;48.782;9.252;2024-03-02T12:42:43;4.60;;;1.93;;
438;SDS011;206;48.782;9.252;2024-03-02T12:45:10;1.60;;;1.10;;
438;SDS011;206;48.782;9.252;2024-03-02T12:47:36;2.03;;;1.20;;
438;SDS011;206;48.782;9.252;2024-03-02T12:50:05;1.70;;;1.10;;
438;SDS011;206;48.782;9.252;2024-03-02T12:52:32;1.40;;;0.90;;
438;SDS011;206;48.782;9.252;2024-03-02T12:54:59;2.63;;;0.87;;
438;SDS011;206;48.782;9.252;2024-03-02T12:57:26;3.10;;;0.90;;
438;SDS011;206;48.782;9.252;2024-03-02T12:59:56;1.70;;;0.80;;
438;SDS011;206;48.782;9.252;2024-03-02T13:02:29;1.17;;;0.77;;
438;SDS011;206;48.782;9.252;2024-03-02T13:04:56;1.23;;;1.00;;
438;SDS011;206;48.782;9.252;2024-03-02T13:07:23;1.50;;;0.73;;
438;SDS011;206;48.782;9.252;2024-03-02T13:09:50;9.60;;;1.67;;
438;SDS011;206;48.782;9.252;2024-03-02T13:12:16;0.93;;;0.67;;
438;SDS011;206;48.782;9.252;2024-03-02T13:14:42;1.10;;;0.80;;
438;SDS011;206;48.782;9.252;2024-03-02T13:17:08;3.50;;;1.73;;
438;SDS011;206;48.782;9.252;2024-03-02T13:19:34;1.37;;;0.60;;
438;SDS011;206;48.782;9.252;2024-03-02T13:22:00;1.70;;;1.00;;
438;SDS011;206;48.782;9.252;2024-03-02T13:24:29;2.80;;;1.40;;
438;SDS011;206;48.782;9.252;2024-03-02T13:26:55;2.17;;;1.00;;
438;SDS011;206;48.782;9.252;2024-03-02T13:29:23;1.07;;;1.00;;
438;SDS011;206;48.782;9.252;2024-03-02T13:31:49;1.57;;;0.80;;
438;SDS011;206;48.782;9.252;2024-03-02T13:34:15;0.90;;;0.70;;
438;SDS011;206;48.782;9.252;2024-03-02T13:36:41;1.47;;;0.80;;
438;SDS011;206;48.782;9.252;2024-03-02T13:39:06;1.60;;;1.13;;
438;SDS011;206;48.782;9.252;2024-03-02T13:41:35;1.77;;;1.00;;
438;SDS011;206;48.782;9.252;2024-03-02T13:44:01;2.33;;;1.47;;
438;SDS011;206;48.782;9.252;2024-03-02T13:46:27;1.23;;;1.10;;
438;SDS011;206;48.782;9.252;2024-03-02T13:48:53;1.60;;;1.40;;
438;SDS011;206;48.782;9.252;2024-03-02T13:51:19;1.10;;;0.80;;
438;SDS011;206;48.782;9.252;2024-03-02T13:53:45;1.73;;;1.07;;
438;SDS011;206;48.782;9.252;2024-03-02T13:56:10;1.60;;;1.00;;
438;SDS011;206;48.782;9.252;2024-03-02T13:58:36;1.83;;;1.00;;
438;SDS011;206;48.782;9.252;2024-03-02T14:01:02;2.17;;;1.53;;
438;SDS011;206;48.782;9.252;2024-03-02T14:03:29;1.37;;;1.10;;
438;SDS011;206;48.782;9.252;2024-03-02T14:05:55;2.53;;;1.20;;
438;SDS011;206;48.782;9.252;2024-03-02T14:08:21;1.00;;;0.70;;
438;SDS011;206;48.782;9.252;2024-03-02T14:10:46;1.53;;;1.20;;
438;SDS011;206;48.782;9.252;2024-03-02T14:13:12;0.97;;;0.87;;
438;SDS011;206;48.782;9.252;2024-03-02T14:15:37;3.03;;;0.87;;
438;SDS011;206;48.782;9.252;2024-03-02T14:18:04;1.00;;;0.90;;
438;SDS011;206;48.782;9.252;2024-03-02T14:20:31;1.40;;;1.27;;
438;SDS011;206;48.782;9.252;2024-03-02T14:22:57;1.77;;;0.93;;
438;SDS011;206;48.782;9.252;2024-03-02T14:25:24;1.30;;;1.20;;
438;SDS011;206;48.782;9.252;2024-03-02T14:27:50;2.90;;;2.57;;
438;SDS011;206;48.782;9.252;2024-03-02T14:30:16;1.30;;;1.00;;
438;SDS011;206;48.782;9.252;2024-03-02T14:32:41;1.13;;;1.00;;
438;SDS011;206;48.782;9.252;2024-03-02T14:35:07;1.03;;;0.83;;
438;SDS011;206;48.782;9.252;2024-03-02T14:37:35;1.03;;;0.97;;
438;SDS011;206;48.782;9.252;2024-03-02T14:40:01;1.40;;;1.33;;
438;SDS011;206;48.782;9.252;2024-03-02T14:42:30;1.10;;;1.10;;
438;SDS011;206;48.782;9.252;2024-03-02T14:44:56;2.27;;;1.20;;
438;SDS011;206;48.782;9.252;2024-03-02T14:47:22;1.83;;;1.50;;
438;SDS011;206;48.782;9.252;2024-03-02T14:49:48;3.07;;;2.70;;
438;SDS011;206;48.782;9.252;2024-03-02T14:52:13;2.77;;;2.27;;
438;SDS011;206;48.782;9.252;2024-03-02T14:54:39;5.67;;;2.07;;
438;SDS011;206;48.782;9.252;2024-03-02T14:57:05;1.10;;;0.80;;
438;SDS011;206;48.782;9.252;2024-03-02T14:59:30;0.83;;;0.67;;
438;SDS011;206;48.782;9.252;2024-03-02T15:01:56;1.13;;;1.03;;
438;SDS011;206;48.782;9.252;2024-03-02T15:04:22;1.47;;;1.30;;
438;SDS011;206;48.782;9.252;2024-03-02T15:06:48;1.67;;;1.20;;
438;SDS011;206;48.782;9.252;2024-03-02T15:09:13;1.57;;;1.20;;
438;SDS011;206;48.782;9.252;2024-03-02T15:11:43;1.50;;;1.27;;
438;SDS011;206;48.782;9.252;2024-03-02T15:14:09;2.40;;;0.93;;
438;SDS011;206;48.782;9.252;2024-03-02T15:16:34;1.87;;;1.57;;
438;SDS011;206;48.782;9.252;2024-03-02T15:19:00;2.47;;;1.13;;
438;SDS011;206;48.782;9.252;2024-03-02T15:21:27;1.07;;;0.80;;
438;SDS011;206;48.782;9.252;2024-03-02T15:23:52;1.60;;;1.23;;
438;SDS011;206;48.782;9.252;2024-03-02T15:26:18;2.73;;;1.40;;
438;SDS011;206;48.782;9.252;2024-03-02T15:28:43;3.13;;;1.33;;